Historyczne dane pomiarowe

Dodano dane terminowe – wersja testowa.

Dane z okresu 1951-2019

Wersja bazy: 1.34 [2019-03-16, lista zmian], aktualizacja planowana na 2019-04-15

Dane meteo z obszaru Polski uzyskane na podstawie danych udostępnionych przez Instytut Meteorologii i Gospodarki Wodnej – Państwowy Instytut Badawczy.

 

Wybierz Datę:    

       

TemperaturaWilgotnośćWiatrCiśnienieOpadyŚniegCzas trwania zjawisk
 Stacja t tx tn tng RH VA  wxwx mslp ppp RRR   cm mm wxwxwxwxwxwxwx
1983-04-17 8.2 15.6 -0.2 -4.4 62.8- 0.0 1.3---- 0.0------------
1983-04-18 8.4 15.8 0.8 -3.5 57.5- 5.0 2.7---- 0.0------------
1983-04-19 11.5 20.6 3.5 -0.5 56.8- 4.0 1.3---- 0.0------------
1983-04-20 15.1 21.5 7.7 3.3 63.5- 0.3 1.0---- 0.0------------
1983-04-21 16.0 25.6 7.8 3.4 66.0- 2.0 1.0---- 0.0------------
1983-04-22 15.3 20.7 10.2 5.6 77.3- 8.0 0.7---- 1.6------------
1983-04-23 13.3 16.7 10.7 10.6 86.0- 7.3 1.3---- 0.2------------
1983-04-24 14.9 22.7 8.7 5.5 74.8- 5.0 1.0---- 0.0------------
1983-04-25 16.5 22.7 9.8 5.0 65.3- 1.7 2.7---- 0.0------------
1983-04-26 16.4 24.9 8.7 4.5 68.5- 0.7 0.7---- 0.0------------
1983-04-27 17.1 23.9 9.8 5.3 62.8- 2.3 1.0---- 0.0------------
1983-04-28 16.2 20.8 12.4 7.5 62.5- 7.3 1.0---- 1.2------------
1983-04-29 15.6 21.6 11.0 7.2 82.8- 6.7 1.3---- 6.8------------
1983-04-30 13.2 17.1 10.1 7.7 75.0- 6.0 1.7---- 0.0------------
1983-05-01 13.8 21.4 6.2 3.3 69.3- 3.0 1.3---- 0.8------------
1983-05-02 11.4 16.6 8.1 8.0 84.0- 7.7 7.3---- 6.4------------
1983-05-03 12.0 18.2 8.1 7.9 69.5- 7.0 4.3---- 0.0------------
1983-05-04 11.6 17.5 5.6 2.7 67.8- 3.0 1.3---- 4.9------------
1983-05-05 9.9 13.6 8.2 7.3 77.5- 4.0 1.7---- 1.6------------
1983-05-06 7.6 8.7 6.8 6.2 85.3- 7.7 2.7---- 1.3------------
1983-05-07 10.0 16.8 5.2 2.6 76.0- 3.0 1.7---- 0.0------------
1983-05-08 11.3 19.4 4.8 2.4 73.3- 4.7 1.7---- 0.1------------
1983-05-09 12.3 15.5 9.2 8.1 87.5- 8.0 1.0---- 4.5------------
1983-05-10 12.4 15.2 10.6 9.0 86.0- 5.3 1.7---- 0.0------------
1983-05-11 13.4 19.1 8.3 4.9 76.0- 5.7 1.0---- 0.2------------
1983-05-12 16.2 23.0 11.8 8.9 71.3- 2.3 2.0---- 0.0------------
1983-05-13 18.8 25.5 10.9 7.5 68.0- 4.3 1.0---- 0.0------------
1983-05-14 18.4 24.7 11.7 8.1 74.5- 3.3 1.0---- 0.0------------
1983-05-15 21.2 31.1 13.1 9.4 68.0- 4.0 0.3---- 0.0------------
1983-05-16 24.1 33.6 14.3 10.5 59.5- 3.0 1.7---- 0.0------------
140.5 ms

 

Źródłem pochodzenia danych jest Instytut Meteorologii i Gospodarki Wodnej – Państwowy Instytut Badawczy. Dane Instytutu Meteorologii i Gospodarki Wodnej – Państwowego Instytutu Badawczego zostały przetworzone.

Dane źródłowe można odnaleźć na stronie https://dane.imgw.pl